Time;durP1;ratioP1;P1;durP2;ratioP2;P2;SDS_P1;SDS_P2;PMS_P1;PMS_P2;Temp;Humidity;BMP_temperature;BMP_pressure;BME280_temperature;BME280_humidity;BME280_pressure;Samples;Min_cycle;Max_cycle;Signal;HPM_P1;HPM_P2
2020/12/18 00:01:29;;;;;;;29.87;20.90;;;;;;;3.55;82.98;101242.09;1706291;82;25518;-78
2020/12/18 00:03:59;;;;;;;29.45;20.40;;;;;;;3.52;83.07;101242.30;1699121;82;25999;-79
2020/12/18 00:06:34;;;;;;;29.30;21.62;;;;;;;3.51;83.25;101239.32;1699870;82;26394;-78
2020/12/18 00:09:02;;;;;;;30.52;21.02;;;;;;;3.54;83.22;101239.59;1700953;82;25997;-78
2020/12/18 00:11:29;;;;;;;36.48;23.70;;;;;;;3.56;83.09;101246.33;1701182;82;25868;-78
2020/12/18 00:13:55;;;;;;;34.73;23.73;;;;;;;3.58;83.26;101238.48;1694514;82;25861;-79
2020/12/18 00:16:26;;;;;;;37.85;25.75;;;;;;;3.62;83.16;101234.77;1706185;82;26486;-78
2020/12/18 00:18:52;;;;;;;40.85;25.92;;;;;;;3.51;83.13;101216.06;1700756;82;26408;-78
2020/12/18 00:21:22;;;;;;;45.58;29.82;;;;;;;3.62;82.89;101236.05;1704200;82;25484;-78
2020/12/18 00:23:50;;;;;;;44.10;28.65;;;;;;;3.55;83.04;101227.88;1709120;82;26423;-78
2020/12/18 00:26:17;;;;;;;50.23;31.80;;;;;;;3.63;83.29;101236.87;1699036;82;26591;-78
2020/12/18 00:28:45;;;;;;;53.25;34.25;;;;;;;3.67;83.28;101234.48;1705349;82;25619;-78
2020/12/18 00:31:11;;;;;;;56.65;32.03;;;;;;;3.66;83.21;101237.53;1699907;82;26520;-78
2020/12/18 00:33:38;;;;;;;56.53;34.63;;;;;;;3.65;82.94;101237.62;1696069;82;25807;-78
2020/12/18 00:36:05;;;;;;;57.13;33.55;;;;;;;3.60;83.00;101237.93;1713160;81;25809;-78
2020/12/18 00:38:31;;;;;;;62.48;36.38;;;;;;;3.44;83.01;101208.83;1695215;81;25295;-78
2020/12/18 00:40:58;;;;;;;62.13;36.17;;;;;;;3.61;83.23;101233.11;1709749;81;25865;-78
2020/12/18 00:43:24;;;;;;;56.10;34.58;;;;;;;3.65;83.25;101227.27;1711176;81;26758;-77
2020/12/18 00:45:51;;;;;;;65.37;37.67;;;;;;;3.71;83.21;101234.19;1712284;81;25853;-78
2020/12/18 00:48:17;;;;;;;63.45;36.95;;;;;;;3.76;83.19;101233.87;1704625;82;26314;-78
2020/12/18 00:50:43;;;;;;;63.63;39.00;;;;;;;3.81;83.14;101238.28;1700002;82;25852;-78
2020/12/18 00:53:10;;;;;;;67.65;40.08;;;;;;;3.87;83.05;101235.77;1701853;82;25852;-78
2020/12/18 00:55:36;;;;;;;71.65;40.88;;;;;;;3.87;82.90;101237.88;1701339;82;26557;-78
2020/12/18 00:58:03;;;;;;;71.95;41.70;;;;;;;3.82;82.94;101219.71;1703383;82;25843;-78
2020/12/18 01:00:29;;;;;;;67.25;40.95;;;;;;;3.90;82.87;101238.14;1706323;82;25777;-78
2020/12/18 01:03:00;;;;;;;71.72;39.65;;;;;;;3.89;82.90;101230.86;1705605;82;25763;-78
2020/12/18 01:05:27;;;;;;;74.67;42.50;;;;;;;3.95;82.98;101233.50;1707161;82;26003;-78
2020/12/18 01:07:53;;;;;;;68.20;40.05;;;;;;;3.94;82.85;101233.97;1702394;82;25882;-78
2020/12/18 01:10:21;;;;;;;70.08;41.85;;;;;;;3.93;82.91;101231.50;1677729;82;26467;-78
2020/12/18 01:12:49;;;;;;;72.12;41.95;;;;;;;3.93;82.85;101233.63;1703587;82;26366;-78
2020/12/18 01:15:16;;;;;;;64.85;38.00;;;;;;;3.93;82.86;101229.74;1681240;82;26439;-77
2020/12/18 01:17:44;;;;;;;65.50;38.80;;;;;;;3.94;82.88;101233.15;1701268;82;25943;-77
2020/12/18 01:20:10;;;;;;;65.28;38.02;;;;;;;3.93;82.84;101234.91;1695586;82;25732;-77
2020/12/18 01:22:37;;;;;;;63.68;37.63;;;;;;;3.88;82.78;101215.45;1702057;82;26583;-77
2020/12/18 01:25:04;;;;;;;70.35;40.35;;;;;;;3.96;82.80;101231.30;1703209;82;25898;-77
2020/12/18 01:27:31;;;;;;;66.22;40.05;;;;;;;3.87;82.86;101205.55;1704178;82;26491;-77
2020/12/18 01:29:57;;;;;;;68.67;41.33;;;;;;;4.05;82.87;101229.39;1676170;82;26262;-77
2020/12/18 01:32:26;;;;;;;65.42;39.98;;;;;;;4.08;82.74;101225.77;1700345;82;26781;-77
2020/12/18 01:34:54;;;;;;;71.17;39.50;;;;;;;4.04;82.76;101216.55;1703229;82;26632;-77
2020/12/18 01:37:22;;;;;;;65.57;42.00;;;;;;;4.11;82.63;101225.56;1699203;82;26621;-77
2020/12/18 01:39:53;;;;;;;65.80;39.33;;;;;;;4.13;82.73;101230.18;1708538;81;25736;-77
2020/12/18 01:42:21;;;;;;;67.62;39.60;;;;;;;4.15;82.65;101226.56;1710071;81;25882;-77
2020/12/18 01:44:48;;;;;;;69.07;39.53;;;;;;;4.15;82.61;101229.63;1706890;81;25839;-77
2020/12/18 01:47:32;;;;;;;69.05;39.80;;;;;;;4.09;82.54;101215.78;1713071;81;25658;-77
2020/12/18 01:50:02;;;;;;;66.35;37.93;;;;;;;4.12;82.51;101224.63;1702775;82;25946;-77
2020/12/18 01:52:29;;;;;;;62.55;37.25;;;;;;;4.07;82.45;101217.19;1680757;82;25564;-77
2020/12/18 01:55:06;;;;;;;63.23;37.35;;;;;;;4.07;82.45;101217.19;1676571;82;25953;-77
2020/12/18 01:57:37;;;;;;;66.20;39.38;;;;;;;4.09;82.67;101219.66;1698804;82;27183;-77
2020/12/18 02:00:09;;;;;;;68.35;36.88;;;;;;;4.07;82.55;101212.48;1699871;82;26427;-77
2020/12/18 02:02:41;;;;;;;57.90;36.40;;;;;;;4.08;82.62;101221.42;1709416;82;26141;-77
2020/12/18 02:05:13;;;;;;;60.92;35.75;;;;;;;4.06;82.43;101225.86;1674729;82;25482;-77
2020/12/18 02:07:45;;;;;;;61.65;37.42;;;;;;;4.07;82.50;101224.13;1684529;82;26119;-77
2020/12/18 02:10:16;;;;;;;57.85;35.00;;;;;;;4.09;82.49;101229.56;1680936;83;26580;-77
2020/12/18 02:12:43;;;;;;;60.67;37.70;;;;;;;4.10;82.30;101228.62;1703859;82;25709;-77
2020/12/18 02:15:33;;;;;;;59.08;35.83;;;;;;;4.09;82.39;101225.69;1697800;82;26211;-77
2020/12/18 02:18:19;;;;;;;64.53;37.78;;;;;;;3.90;82.30;101205.81;1722417;81;25521;-77
2020/12/18 02:20:46;;;;;;;61.83;36.98;;;;;;;4.04;82.50;101232.06;1703386;82;25483;-77
2020/12/18 02:23:13;;;;;;;61.42;37.50;;;;;;;4.07;82.64;101230.59;1703439;82;26318;-77
2020/12/18 02:26:18;;;;;;;58.17;36.38;;;;;;;4.08;82.66;101229.18;1713998;81;25540;-77
2020/12/18 02:28:46;;;;;;;64.20;37.67;;;;;;;4.08;82.63;101229.18;1698343;82;25868;-77
2020/12/18 02:31:15;;;;;;;61.37;35.03;;;;;;;4.04;82.58;101232.92;1700736;82;25786;-77
2020/12/18 02:33:43;;;;;;;62.37;37.27;;;;;;;4.01;82.71;101238.30;1701066;82;26649;-77
2020/12/18 02:36:13;;;;;;;63.90;38.45;;;;;;;4.01;82.75;101235.70;1701477;82;25934;-77
2020/12/18 02:38:40;;;;;;;56.85;36.42;;;;;;;4.03;82.81;101229.95;1674915;83;25884;-78
2020/12/18 02:41:06;;;;;;;60.83;36.42;;;;;;;4.07;82.79;101233.18;1700343;82;25839;-77
2020/12/18 02:43:41;;;;;;;52.00;33.13;;;;;;;4.08;82.72;101233.53;1631382;86;26632;-77
2020/12/18 02:46:18;;;;;;;55.05;33.75;;;;;;;4.07;82.66;101231.42;1655469;84;26020;-77
2020/12/18 02:48:46;;;;;;;59.63;36.30;;;;;;;4.10;82.80;101229.92;1631990;86;25712;-77
2020/12/18 02:51:15;;;;;;;57.55;35.28;;;;;;;4.14;82.67;101228.77;1628978;86;26025;-77
2020/12/18 02:53:43;;;;;;;62.55;38.33;;;;;;;4.14;82.64;101216.30;1635642;84;25978;-77
2020/12/18 02:56:11;;;;;;;64.75;37.55;;;;;;;4.17;82.76;101226.00;1628279;86;25961;-77
2020/12/18 02:58:39;;;;;;;69.75;38.83;;;;;;;4.18;82.75;101215.19;1629811;86;26357;-78
2020/12/18 03:01:06;;;;;;;62.98;38.23;;;;;;;4.19;82.76;101218.95;1632980;86;25937;-77
2020/12/18 03:03:32;;;;;;;62.15;38.13;;;;;;;4.18;82.73;101228.95;1631127;86;26860;-77
2020/12/18 03:06:09;;;;;;;66.50;38.45;;;;;;;4.13;82.73;101225.83;1576040;89;25733;-77
2020/12/18 03:08:38;;;;;;;61.85;37.25;;;;;;;4.14;82.89;101231.36;1573672;89;25944;-77
2020/12/18 03:11:07;;;;;;;66.28;37.80;;;;;;;4.13;82.89;101234.89;1572739;89;25916;-77
2020/12/18 03:13:33;;;;;;;65.28;37.08;;;;;;;4.08;82.88;101232.24;1575425;89;25764;-77
2020/12/18 03:16:00;;;;;;;60.20;37.40;;;;;;;4.08;83.00;101229.66;1572133;89;26850;-77
2020/12/18 03:18:29;;;;;;;63.30;36.83;;;;;;;4.10;83.01;101235.09;1572144;89;26364;-77
2020/12/18 03:20:56;;;;;;;60.17;36.20;;;;;;;4.13;83.04;101234.06;1584502;88;26755;-78
2020/12/18 03:23:34;;;;;;;61.73;35.58;;;;;;;4.13;82.97;101236.18;1606299;87;25480;-77
2020/12/18 03:26:09;;;;;;;59.08;34.98;;;;;;;4.16;83.02;101240.33;1583658;88;26525;-77
2020/12/18 03:28:37;;;;;;;61.02;36.35;;;;;;;4.14;83.00;101231.36;1608833;87;26424;-77
2020/12/18 03:31:05;;;;;;;63.75;37.48;;;;;;;4.16;83.15;101226.91;1609381;87;25992;-78
2020/12/18 03:33:31;;;;;;;58.60;36.28;;;;;;;4.17;83.11;101230.33;1609723;87;25285;-77
2020/12/18 03:35:59;;;;;;;62.62;37.20;;;;;;;4.19;83.24;101231.06;1610317;87;26578;-77
2020/12/18 03:38:26;;;;;;;58.65;37.98;;;;;;;4.23;83.31;101233.82;1611210;87;26003;-78
2020/12/18 03:40:52;;;;;;;65.92;38.00;;;;;;;4.23;83.34;101232.53;1608960;87;25851;-78
2020/12/18 03:43:21;;;;;;;64.20;38.05;;;;;;;4.21;83.26;101232.62;1658826;82;25815;-77
2020/12/18 03:45:47;;;;;;;63.55;38.50;;;;;;;4.19;83.37;101233.65;1671002;82;26368;-77
2020/12/18 03:48:27;;;;;;;;;;;;;;;4.21;83.47;101226.15;1701658;82;25957;-77
2020/12/18 03:50:55;;;;;;;55.95;34.75;;;;;;;4.22;83.45;101230.85;1692644;82;25890;-77
2020/12/18 03:53:23;;;;;;;57.38;36.20;;;;;;;4.19;83.54;101216.36;1688919;82;25838;-78
2020/12/18 03:55:52;;;;;;;59.58;35.90;;;;;;;4.16;83.62;101222.21;1688632;82;25857;-77
2020/12/18 03:58:20;;;;;;;55.85;35.85;;;;;;;4.19;83.71;101225.41;1680154;83;25906;-77
2020/12/18 04:00:54;;;;;;;53.80;33.60;;;;;;;4.19;83.64;101215.53;1679952;83;26278;-77
2020/12/18 04:03:21;;;;;;;56.70;35.28;;;;;;;4.18;83.61;101218.59;1684072;83;26482;-78
2020/12/18 04:05:48;;;;;;;55.52;33.63;;;;;;;4.20;83.64;101226.23;1680218;83;25928;-78
2020/12/18 04:08:17;;;;;;;54.88;35.38;;;;;;;4.21;83.62;101227.91;1678263;83;26230;-78
2020/12/18 04:11:03;;;;;;;52.40;33.90;;;;;;;4.21;83.63;101231.80;1633563;86;25835;-78
2020/12/18 04:13:34;;;;;;;51.85;33.30;;;;;;;4.20;83.59;101232.27;1640538;85;25973;-77
2020/12/18 04:16:00;;;;;;;56.15;37.20;;;;;;;4.20;83.62;101217.18;1666524;84;25829;-77
2020/12/18 04:22:26;;;;;;;61.65;37.53;;;;;;;4.23;83.70;101227.36;1673478;84;25838;-78
2020/12/18 04:24:54;;;;;;;59.42;37.85;;;;;;;4.21;83.65;101228.73;1663535;84;25857;-78
2020/12/18 04:27:20;;;;;;;56.73;37.08;;;;;;;4.14;83.75;101237.83;1665853;84;25826;-77
2020/12/18 04:29:47;;;;;;;59.63;35.98;;;;;;;4.13;83.78;101243.94;1666986;84;26338;-78
2020/12/18 04:32:13;;;;;;;56.37;34.70;;;;;;;4.09;83.84;101236.47;1672650;84;25886;-78
2020/12/18 04:34:40;;;;;;;54.42;33.92;;;;;;;4.09;83.94;101233.89;1667553;84;25405;-77
2020/12/18 04:37:23;;;;;;;52.98;32.65;;;;;;;4.09;83.96;101240.35;1669699;84;25896;-77
2020/12/18 04:40:06;;;;;;;54.00;32.33;;;;;;;4.07;84.00;101235.30;1664596;84;25831;-77
2020/12/18 04:42:35;;;;;;;47.25;29.60;;;;;;;4.10;84.03;101233.80;1685202;82;26509;-77
2020/12/18 04:45:04;;;;;;;49.10;31.30;;;;;;;4.11;84.03;101229.45;1697313;82;26763;-78
2020/12/18 04:47:36;;;;;;;43.70;29.32;;;;;;;4.16;84.14;101230.80;1702239;82;25848;-77
2020/12/18 04:50:35;;;;;;;41.68;29.12;;;;;;;4.21;84.13;101236.50;1698763;82;25492;-77
2020/12/18 04:53:06;;;;;;;44.40;28.67;;;;;;;4.25;83.99;101237.11;1693656;82;26219;-77
2020/12/18 04:55:36;;;;;;;43.25;29.87;;;;;;;4.25;83.83;101249.23;1701170;82;26344;-77
2020/12/18 04:58:29;;;;;;;46.95;30.48;;;;;;;4.18;83.75;101253.52;1684336;82;26737;-77
2020/12/18 05:00:58;;;;;;;48.78;33.15;;;;;;;4.17;83.91;101257.49;1702459;82;25767;-77
2020/12/18 05:06:27;;;;;;;48.02;31.02;;;;;;;4.05;83.89;101250.55;1699326;82;26383;-77
2020/12/18 05:08:54;;;;;;;49.27;31.80;;;;;;;4.02;84.13;101239.94;1699994;82;26926;-77
2020/12/18 05:11:25;;;;;;;46.23;31.02;;;;;;;4.02;84.14;101244.30;1700659;82;25764;-77
2020/12/18 05:14:05;;;;;;;45.45;27.80;;;;;;;4.00;84.13;101243.09;1701336;82;25939;-77
2020/12/18 05:16:33;;;;;;;47.78;30.27;;;;;;;3.99;84.22;101240.97;1700879;82;26464;-77
2020/12/18 05:19:11;;;;;;;49.58;30.82;;;;;;;3.98;84.27;101252.70;1711496;81;25760;-77
2020/12/18 05:21:44;;;;;;;53.63;31.45;;;;;;;4.02;84.38;101246.87;1708533;81;26016;-77
2020/12/18 05:24:14;;;;;;;52.40;33.28;;;;;;;3.90;84.35;101232.53;1716174;81;25806;-77
2020/12/18 05:26:43;;;;;;;49.38;31.35;;;;;;;4.04;84.36;101255.34;1712681;81;26561;-77
2020/12/18 05:29:10;;;;;;;47.85;30.57;;;;;;;4.02;84.37;101256.75;1691358;81;25752;-78
2020/12/18 05:31:38;;;;;;;46.83;31.07;;;;;;;4.03;84.42;101251.94;1680688;83;25668;-77
2020/12/18 05:34:19;;;;;;;46.77;31.52;;;;;;;4.06;84.52;101260.78;1681220;82;33036;-77
2020/12/18 05:36:50;;;;;;;50.63;30.95;;;;;;;4.03;84.49;101254.99;1680391;82;26427;-77
2020/12/18 05:39:18;;;;;;;59.48;34.73;;;;;;;4.05;84.67;101257.02;1700764;82;25917;-78
2020/12/18 05:42:07;;;;;;;55.10;33.38;;;;;;;4.00;84.60;101260.72;1701785;82;25560;-78
2020/12/18 05:44:35;;;;;;;62.00;33.83;;;;;;;3.98;84.71;101266.92;1740916;80;26391;-77
2020/12/18 05:47:12;;;;;;;56.15;32.28;;;;;;;4.01;84.83;101274.51;1751161;80;25894;-77
2020/12/18 05:49:41;;;;;;;58.58;33.50;;;;;;;4.03;84.88;101275.22;1697156;82;25927;-77
2020/12/18 05:52:21;;;;;;;59.35;35.15;;;;;;;4.06;84.91;101275.48;1702974;82;25634;-77
2020/12/18 05:54:53;;;;;;;63.70;34.40;;;;;;;4.08;84.96;101278.33;1626762;86;25971;-77
2020/12/18 05:57:20;;;;;;;63.55;33.23;;;;;;;4.10;84.90;101279.54;1687437;83;26485;-78
2020/12/18 05:59:48;;;;;;;65.37;32.40;;;;;;;4.08;85.00;101283.51;1685121;82;26741;-77
2020/12/18 06:02:35;;;;;;;56.63;32.35;;;;;;;4.11;84.98;101292.83;1703973;81;26749;-77
2020/12/18 06:05:06;;;;;;;53.92;31.33;;;;;;;4.11;85.05;101284.59;1685703;83;26321;-77
2020/12/18 06:07:40;;;;;;;58.13;31.60;;;;;;;4.07;85.10;101281.86;1683916;83;25726;-77
2020/12/18 06:10:14;;;;;;;60.78;36.55;;;;;;;4.08;85.18;101283.51;1685969;81;25764;-77
2020/12/18 06:12:50;;;;;;;65.32;34.95;;;;;;;4.05;85.25;101287.59;1632722;86;27361;-77
2020/12/18 06:15:18;;;;;;;66.02;34.05;;;;;;;4.04;85.44;101280.77;1636477;86;26255;-77
2020/12/18 06:17:46;;;;;;;65.35;36.03;;;;;;;4.05;85.54;101288.88;1631893;86;25667;-77
2020/12/18 06:20:15;;;;;;;66.87;35.05;;;;;;;4.03;85.87;101292.02;1630531;86;25877;-77
2020/12/18 06:23:03;;;;;;;67.40;33.83;;;;;;;4.03;85.87;101292.02;1634972;86;26768;-77
2020/12/18 06:25:40;;;;;;;61.98;34.55;;;;;;;4.06;85.84;101302.17;1627744;86;26826;-77
2020/12/18 06:28:23;;;;;;;62.60;33.35;;;;;;;4.08;85.90;101301.62;1632080;86;26701;-77
2020/12/18 06:31:23;;;;;;;58.33;35.15;;;;;;;4.12;86.08;101306.11;1632742;86;26404;-77
2020/12/18 06:33:56;;;;;;;58.70;32.73;;;;;;;4.10;85.98;101306.23;1625372;86;25849;-77
2020/12/18 06:36:51;;;;;;;63.45;34.98;;;;;;;4.12;86.07;101305.67;1597889;87;25963;-77
2020/12/18 06:39:36;;;;;;;51.55;31.07;;;;;;;4.17;86.16;101308.80;1606887;87;25920;-77
2020/12/18 06:42:27;;;;;;;62.75;32.93;;;;;;;4.22;86.28;101309.30;1605089;87;25920;-77
2020/12/18 06:45:10;;;;;;;57.98;32.70;;;;;;;4.20;86.15;101321.97;1605729;87;25940;-77
2020/12/18 06:47:52;;;;;;;61.33;32.70;;;;;;;4.14;86.19;101318.50;1603250;87;25913;-77
2020/12/18 06:50:34;;;;;;;56.02;33.08;;;;;;;4.10;86.37;101319.64;1619802;86;26864;-77
2020/12/18 06:53:15;;;;;;;59.08;32.53;;;;;;;4.12;86.44;101329.40;1608507;86;25793;-77
2020/12/18 06:55:46;;;;;;;56.18;33.02;;;;;;;4.16;86.51;101323.11;1613959;86;25935;-77
2020/12/18 06:58:20;;;;;;;51.65;30.48;;;;;;;4.17;86.50;101329.94;1607220;86;26030;-77
2020/12/18 07:00:54;;;;;;;51.05;29.15;;;;;;;4.16;86.50;101336.05;1617895;86;25815;-78
2020/12/18 07:03:39;;;;;;;57.23;31.25;;;;;;;4.18;86.76;101331.61;1605753;86;25503;-78
2020/12/18 07:06:26;;;;;;;53.02;29.27;;;;;;;4.17;86.58;101337.26;1609550;86;26611;-77
2020/12/18 07:08:56;;;;;;;49.27;29.40;;;;;;;4.15;86.83;101332.64;1630265;85;25784;-77
2020/12/18 07:11:23;;;;;;;51.23;30.43;;;;;;;4.22;86.73;101345.52;1649371;82;25872;-77
2020/12/18 07:13:53;;;;;;;59.35;31.73;;;;;;;4.25;86.68;101349.67;1719306;80;25778;-77
2020/12/18 07:16:26;;;;;;;57.38;33.67;;;;;;;4.27;86.59;101349.59;1745407;80;25510;-77
2020/12/18 07:18:51;;;;;;;61.95;36.25;;;;;;;4.29;86.77;101351.15;1746383;80;26248;-78
2020/12/18 07:21:19;;;;;;;57.95;33.90;;;;;;;4.29;86.82;101350.33;1749878;80;25964;-77
2020/12/18 07:23:52;;;;;;;53.70;33.80;;;;;;;4.27;87.07;101347.82;1751362;80;25522;-77
2020/12/18 07:26:20;;;;;;;49.88;31.55;;;;;;;4.26;87.16;101353.11;1751464;80;25547;-77
2020/12/18 07:28:49;;;;;;;61.33;30.70;;;;;;;4.27;87.14;101349.59;1729118;81;25807;-77
2020/12/18 07:31:25;;;;;;;54.98;28.05;;;;;;;4.27;87.31;101349.11;1744325;80;25782;-77
2020/12/18 07:33:59;;;;;;;59.93;33.25;;;;;;;4.27;87.12;101356.88;1740241;80;25712;-78
2020/12/18 07:36:27;;;;;;;59.60;32.73;;;;;;;4.29;87.32;101351.62;1750498;80;26053;-77
2020/12/18 07:39:01;;;;;;;60.45;32.00;;;;;;;4.31;87.46;101360.09;1745386;80;26319;-77
2020/12/18 07:41:31;;;;;;;72.47;34.58;;;;;;;4.33;87.64;101362.94;1750623;80;25851;-77
2020/12/18 07:44:07;;;;;;;56.92;30.12;;;;;;;4.36;87.57;101356.73;1743012;79;25677;-77
2020/12/18 07:46:35;;;;;;;56.55;32.42;;;;;;;4.38;87.83;101360.06;1755226;80;25717;-77
2020/12/18 07:49:10;;;;;;;63.90;30.68;;;;;;;4.40;87.79;101362.09;1751510;80;26039;-77
2020/12/18 07:51:39;;;;;;;62.10;30.82;;;;;;;4.41;87.78;101368.92;1729305;80;25817;-77
2020/12/18 07:54:05;;;;;;;67.27;34.23;;;;;;;4.41;87.82;101371.03;1730637;81;25974;-77
2020/12/18 07:56:35;;;;;;;55.12;33.08;;;;;;;4.44;87.88;101371.30;1739836;81;25783;-77
2020/12/18 07:59:07;;;;;;;59.75;29.32;;;;;;;4.48;87.96;101368.07;1751462;80;25865;-78
2020/12/18 08:01:37;;;;;;;57.88;31.30;;;;;;;4.49;87.87;101375.72;1727333;81;26735;-78
2020/12/18 08:04:11;;;;;;;63.73;31.68;;;;;;;4.49;87.95;101375.72;1730343;81;25958;-77
2020/12/18 08:06:39;;;;;;;63.50;34.13;;;;;;;4.48;87.97;101373.25;1752408;80;26404;-77
2020/12/18 08:09:16;;;;;;;62.85;32.15;;;;;;;4.49;88.07;101374.42;1732368;81;26619;-77
2020/12/18 08:11:46;;;;;;;63.15;34.08;;;;;;;4.51;88.11;101377.75;1757075;80;25814;-77
2020/12/18 08:14:13;;;;;;;62.60;33.07;;;;;;;4.53;88.05;101377.62;1733466;81;25844;-78
2020/12/18 08:16:40;;;;;;;57.78;33.02;;;;;;;4.58;88.14;101378.16;1751256;80;26389;-77
2020/12/18 08:19:10;;;;;;;60.83;31.52;;;;;;;4.60;88.17;101386.66;1731771;81;25720;-77
2020/12/18 08:21:47;;;;;;;63.52;34.40;;;;;;;4.61;88.18;101387.02;1756250;80;26486;-77
2020/12/18 08:24:26;;;;;;;67.12;32.45;;;;;;;4.63;88.30;101385.98;1713318;81;25789;-77
2020/12/18 08:27:24;;;;;;;62.45;31.30;;;;;;;4.61;88.68;101378.81;1708593;81;25885;-77
2020/12/18 08:29:52;;;;;;;78.80;34.10;;;;;;;4.61;88.61;101388.31;1643720;85;25848;-77
2020/12/18 08:32:28;;;;;;;75.57;33.90;;;;;;;4.63;88.57;101393.75;1639881;85;26588;-77
2020/12/18 08:35:04;;;;;;;73.90;36.83;;;;;;;4.69;88.63;101391.23;1634305;86;27165;-77
2020/12/18 08:37:31;;;;;;;82.35;37.28;;;;;;;4.74;88.58;101389.64;1641934;85;25798;-77
2020/12/18 08:39:59;;;;;;;74.03;39.00;;;;;;;4.77;88.58;101384.25;1639183;85;25807;-77
2020/12/18 08:42:25;;;;;;;70.47;35.88;;;;;;;4.83;88.58;101397.64;1639736;85;25879;-78
2020/12/18 08:44:52;;;;;;;69.27;35.52;;;;;;;4.88;88.46;101396.02;1640415;85;25784;-78
2020/12/18 08:47:23;;;;;;;67.35;34.38;;;;;;;4.90;88.45;101401.93;1640364;85;25957;-77
2020/12/18 08:49:54;;;;;;;77.30;35.35;;;;;;;4.92;88.37;101398.78;1638777;85;26111;-77
2020/12/18 08:52:26;;;;;;;;;;;;;;;4.96;88.37;101400.22;1646485;85;26085;-77
2020/12/18 08:55:07;;;;;;;70.35;33.48;;;;;;;5.00;88.39;101401.69;1677040;83;26280;-77
2020/12/18 08:57:40;;;;;;;71.07;34.00;;;;;;;5.02;88.44;101398.53;1690254;83;25762;-77
2020/12/18 09:00:18;;;;;;;62.80;37.13;;;;;;;5.04;88.34;101401.83;1689317;83;25750;-77
2020/12/18 09:02:56;;;;;;;73.95;38.05;;;;;;;5.04;88.33;101400.53;1691946;83;25719;-77
2020/12/18 09:05:32;;;;;;;73.47;37.95;;;;;;;5.05;88.27;101399.62;1693202;83;26444;-77
2020/12/18 09:08:08;;;;;;;80.67;37.50;;;;;;;5.07;88.37;101401.65;1680621;83;25921;-77
2020/12/18 09:10:40;;;;;;;72.17;37.98;;;;;;;5.10;88.43;101396.25;1690033;83;25826;-77
2020/12/18 09:13:16;;;;;;;66.65;34.13;;;;;;;5.16;88.43;101398.07;1691486;83;25737;-77
2020/12/18 09:15:46;;;;;;;65.35;36.28;;;;;;;5.17;88.40;101403.61;1690362;83;25725;-78
2020/12/18 09:18:24;;;;;;;61.08;34.23;;;;;;;5.18;88.33;101399.59;1678352;83;25793;-78
2020/12/18 09:20:55;;;;;;;61.45;35.63;;;;;;;5.21;88.25;101401.16;1692541;83;26589;-77
2020/12/18 09:23:31;;;;;;;66.40;36.65;;;;;;;5.22;88.22;101408.02;1692863;83;25750;-77
2020/12/18 09:26:00;;;;;;;55.15;34.80;;;;;;;5.25;88.28;101403.44;1690769;83;25874;-77
2020/12/18 09:28:29;;;;;;;56.58;32.08;;;;;;;5.30;88.32;101410.44;1670472;82;25744;-77
2020/12/18 09:30:57;;;;;;;56.63;33.67;;;;;;;5.34;88.33;101411.88;1691134;82;25800;-77
2020/12/18 09:33:30;;;;;;;54.38;32.15;;;;;;;5.38;88.27;101407.33;1695621;82;25746;-78
2020/12/18 09:36:08;;;;;;;56.33;32.13;;;;;;;5.39;88.15;101405.56;1697047;82;25711;-78
2020/12/18 09:38:52;;;;;;;51.85;30.55;;;;;;;5.39;88.12;101405.09;1692021;82;25831;-77
2020/12/18 09:41:21;;;;;;;51.70;31.80;;;;;;;5.41;88.11;101406.29;1695756;82;26512;-78
2020/12/18 09:43:49;;;;;;;54.43;32.13;;;;;;;5.44;88.22;101406.08;1671257;82;25907;-79
2020/12/18 09:46:18;;;;;;;47.08;29.77;;;;;;;5.47;88.17;101402.80;1694147;82;25662;-79
2020/12/18 09:48:46;;;;;;;46.05;29.65;;;;;;;5.50;88.15;101404.34;1691112;82;26351;-79
2020/12/18 09:51:13;;;;;;;53.38;34.30;;;;;;;5.51;88.04;101401.66;1685785;82;25816;-78
2020/12/18 09:53:39;;;;;;;52.25;33.35;;;;;;;5.54;88.04;101409.70;1694408;82;25537;-78
2020/12/18 09:56:10;;;;;;;52.35;32.25;;;;;;;5.55;87.96;101403.56;1694850;82;25870;-78
2020/12/18 09:58:36;;;;;;;50.98;32.38;;;;;;;5.58;87.97;101410.30;1694943;82;25912;-78
2020/12/18 10:01:05;;;;;;;52.43;32.48;;;;;;;5.59;87.93;101408.06;1695154;82;25760;-78
2020/12/18 10:03:32;;;;;;;56.00;35.10;;;;;;;5.58;87.87;101409.83;1690692;82;26309;-78
2020/12/18 10:05:58;;;;;;;45.05;30.10;;;;;;;5.55;87.91;101413.46;1694347;82;25909;-78
2020/12/18 10:08:25;;;;;;;53.28;34.58;;;;;;;5.57;87.96;101415.97;1694389;82;25853;-78
2020/12/18 10:10:51;;;;;;;48.85;31.65;;;;;;;5.58;87.88;101414.20;1692539;82;25951;-78
2020/12/18 10:13:21;;;;;;;50.70;33.15;;;;;;;5.56;87.89;101417.73;1690463;82;25754;-78
2020/12/18 10:15:45;;;;;;;44.53;29.45;;;;;;;5.57;87.89;101414.67;1690783;82;27258;-78
2020/12/18 10:18:11;;;;;;;54.50;33.33;;;;;;;5.56;87.81;101415.14;1693845;82;25967;-78
2020/12/18 10:20:37;;;;;;;53.02;34.00;;;;;;;5.56;87.90;101415.14;1697279;82;26332;-86
2020/12/18 10:23:04;;;;;;;58.63;35.43;;;;;;;5.61;87.98;101415.27;1693352;82;25705;-78
2020/12/18 10:25:30;;;;;;;52.08;33.45;;;;;;;5.66;88.02;101411.42;1695257;82;25852;-78
2020/12/18 10:27:56;;;;;;;54.95;33.38;;;;;;;5.73;87.98;101410.55;1668019;83;26790;-78
2020/12/18 10:30:22;;;;;;;69.05;38.13;;;;;;;5.73;87.64;101413.14;1675524;83;26803;-78
2020/12/18 10:32:50;;;;;;;52.78;33.55;;;;;;;5.73;87.67;101418.33;1673715;83;26564;-78
2020/12/18 10:35:17;;;;;;;58.35;37.20;;;;;;;5.75;87.74;101419.84;1672119;83;25828;-78
2020/12/18 10:37:47;;;;;;;53.75;34.65;;;;;;;5.76;87.63;101418.11;1674028;83;25943;-78
2020/12/18 10:40:15;;;;;;;49.18;32.90;;;;;;;5.77;87.68;101421.05;1673725;83;25807;-78
2020/12/18 10:42:43;;;;;;;50.90;33.10;;;;;;;5.81;87.76;101419.06;1655140;83;25929;-77
2020/12/18 10:45:09;;;;;;;54.98;34.18;;;;;;;5.83;87.66;101419.31;1669068;84;25742;-78
2020/12/18 10:47:36;;;;;;;50.95;31.55;;;;;;;5.87;87.70;101421.25;1670051;83;25866;-78
2020/12/18 10:50:03;;;;;;;50.52;33.40;;;;;;;5.91;87.60;101422.67;1670872;84;25699;-78
2020/12/18 10:52:33;;;;;;;56.45;35.63;;;;;;;5.91;87.51;101420.90;1672236;83;26512;-78
2020/12/18 10:54:59;;;;;;;55.23;36.55;;;;;;;5.91;87.45;101416.19;1674379;84;25812;-78
2020/12/18 10:57:25;;;;;;;60.50;37.15;;;;;;;5.93;87.55;101420.80;1674299;84;26562;-78
2020/12/18 10:59:51;;;;;;;53.28;31.85;;;;;;;5.93;87.48;101415.61;1672175;84;26382;-77
2020/12/18 11:02:17;;;;;;;48.13;32.15;;;;;;;5.94;87.54;101412.92;1671478;84;25862;-78
2020/12/18 11:04:45;;;;;;;49.08;33.67;;;;;;;5.96;87.50;101416.72;1672894;84;25761;-78
2020/12/18 11:07:11;;;;;;;49.83;32.63;;;;;;;5.95;87.34;101417.20;1673112;83;25789;-78
2020/12/18 11:09:39;;;;;;;50.12;32.17;;;;;;;5.93;87.30;101420.80;1674935;84;26769;-78
2020/12/18 11:12:07;;;;;;;48.28;32.28;;;;;;;5.93;87.37;101419.06;1673618;84;25854;-77
2020/12/18 11:14:33;;;;;;;45.35;29.30;;;;;;;5.95;87.33;101418.97;1676255;84;25902;-78
2020/12/18 11:16:59;;;;;;;50.45;32.38;;;;;;;5.93;87.30;101416.47;1676447;84;25862;-77
2020/12/18 11:19:26;;;;;;;47.15;30.85;;;;;;;5.94;87.31;101418.59;1655855;85;25849;-77
2020/12/18 11:21:52;;;;;;;46.65;28.32;;;;;;;5.95;87.37;101420.27;1670750;84;25840;-78
2020/12/18 11:24:18;;;;;;;58.98;28.77;;;;;;;5.96;87.34;101414.95;1675235;84;25730;-78
2020/12/18 11:26:51;;;;;;;42.20;29.98;;;;;;;6.00;87.40;101422.89;1677047;84;25730;-77
2020/12/18 11:29:18;;;;;;;48.63;30.65;;;;;;;6.03;87.37;101417.95;1676383;84;26723;-78
2020/12/18 11:31:47;;;;;;;44.58;29.67;;;;;;;6.08;87.48;101417.61;1678398;85;25834;-77
2020/12/18 11:34:14;;;;;;;46.83;28.37;;;;;;;6.12;87.34;101415.98;1670423;84;26007;-77
2020/12/18 11:36:42;;;;;;;48.05;30.25;;;;;;;6.14;87.19;101414.59;1674435;83;25841;-78
2020/12/18 11:39:08;;;;;;;42.60;28.67;;;;;;;6.12;87.08;101412.57;1676016;84;25717;-78
2020/12/18 11:41:35;;;;;;;51.23;30.68;;;;;;;6.09;87.04;101418.81;1650613;85;46641;-78